sensor_id;sensor_type;location;lat;lon;timestamp;pressure;altitude;pressure_sealevel;temperature;humidity
8697;BME280;4385;48.848;8.924;2023-03-14T00:02:16;95760.53;;;16.75;100.00
8697;BME280;4385;48.848;8.924;2023-03-14T00:04:41;95763.91;;;16.75;100.00
8697;BME280;4385;48.848;8.924;2023-03-14T00:07:06;95781.78;;;16.74;100.00
8697;BME280;4385;48.848;8.924;2023-03-14T00:09:32;95770.78;;;16.73;100.00
8697;BME280;4385;48.848;8.924;2023-03-14T00:11:57;95772.47;;;16.73;100.00
8697;BME280;4385;48.848;8.924;2023-03-14T00:14:23;95769.13;;;16.72;100.00
8697;BME280;4385;48.848;8.924;2023-03-14T00:16:48;95764.03;;;16.72;100.00
8697;BME280;4385;48.848;8.924;2023-03-14T00:19:14;95769.94;;;16.73;100.00
8697;BME280;4385;48.848;8.924;2023-03-14T00:21:39;95769.13;;;16.72;100.00
8697;BME280;4385;48.848;8.924;2023-03-14T00:24:05;95769.13;;;16.72;100.00
8697;BME280;4385;48.848;8.924;2023-03-14T00:26:31;95753.09;;;16.70;100.00
8697;BME280;4385;48.848;8.924;2023-03-14T00:28:56;95762.44;;;16.69;100.00
8697;BME280;4385;48.848;8.924;2023-03-14T00:31:21;95764.16;;;16.69;100.00
8697;BME280;4385;48.848;8.924;2023-03-14T00:33:47;95762.50;;;16.68;100.00
8697;BME280;4385;48.848;8.924;2023-03-14T00:36:17;95761.75;;;16.66;100.00
8697;BME280;4385;48.848;8.924;2023-03-14T00:38:44;95752.47;;;16.65;100.00
8697;BME280;4385;48.848;8.924;2023-03-14T00:41:12;95756.75;;;16.64;100.00
8697;BME280;4385;48.848;8.924;2023-03-14T00:43:38;95759.28;;;16.64;100.00
8697;BME280;4385;48.848;8.924;2023-03-14T00:46:04;95752.59;;;16.62;100.00
8697;BME280;4385;48.848;8.924;2023-03-14T00:48:30;95749.19;;;16.63;100.00
8697;BME280;4385;48.848;8.924;2023-03-14T00:50:55;95763.53;;;16.64;100.00
8697;BME280;4385;48.848;8.924;2023-03-14T00:53:20;95767.84;;;16.62;100.00
8697;BME280;4385;48.848;8.924;2023-03-14T00:55:46;95768.69;;;16.62;100.00
8697;BME280;4385;48.848;8.924;2023-03-14T00:58:13;95774.66;;;16.61;100.00
8697;BME280;4385;48.848;8.924;2023-03-14T01:00:39;95784.84;;;16.61;100.00
8697;BME280;4385;48.848;8.924;2023-03-14T01:03:04;95785.72;;;16.60;100.00
8697;BME280;4385;48.848;8.924;2023-03-14T01:05:30;95790.00;;;16.60;100.00
8697;BME280;4385;48.848;8.924;2023-03-14T01:07:56;95787.50;;;16.58;100.00
8697;BME280;4385;48.848;8.924;2023-03-14T01:10:22;95782.44;;;16.58;100.00
8697;BME280;4385;48.848;8.924;2023-03-14T01:12:48;95776.50;;;16.57;100.00
8697;BME280;4385;48.848;8.924;2023-03-14T01:15:13;95768.09;;;16.55;100.00
8697;BME280;4385;48.848;8.924;2023-03-14T01:17:39;95773.19;;;16.55;100.00
8697;BME280;4385;48.848;8.924;2023-03-14T01:20:06;95766.47;;;16.54;100.00
8697;BME280;4385;48.848;8.924;2023-03-14T01:22:34;95763.16;;;16.52;100.00
8697;BME280;4385;48.848;8.924;2023-03-14T01:24:59;95758.97;;;16.51;100.00
8697;BME280;4385;48.848;8.924;2023-03-14T01:27:25;95750.44;;;16.52;100.00
8697;BME280;4385;48.848;8.924;2023-03-14T01:29:50;95725.91;;;16.51;100.00
8697;BME280;4385;48.848;8.924;2023-03-14T01:32:15;95714.09;;;16.50;100.00
8697;BME280;4385;48.848;8.924;2023-03-14T01:34:41;95703.94;;;16.50;100.00
8697;BME280;4385;48.848;8.924;2023-03-14T01:37:06;95697.19;;;16.49;100.00
8697;BME280;4385;48.848;8.924;2023-03-14T01:39:33;95682.75;;;16.50;100.00
8697;BME280;4385;48.848;8.924;2023-03-14T01:42:00;95676.84;;;16.49;100.00
8697;BME280;4385;48.848;8.924;2023-03-14T01:44:25;95674.28;;;16.49;100.00
8697;BME280;4385;48.848;8.924;2023-03-14T01:46:50;95669.22;;;16.49;100.00
8697;BME280;4385;48.848;8.924;2023-03-14T01:49:32;95670.09;;;16.48;100.00
8697;BME280;4385;48.848;8.924;2023-03-14T01:52:03;95676.84;;;16.49;100.00
8697;BME280;4385;48.848;8.924;2023-03-14T01:57:31;95670.09;;;16.48;100.00
8697;BME280;4385;48.848;8.924;2023-03-14T02:00:05;95670.94;;;16.49;100.00
8697;BME280;4385;48.848;8.924;2023-03-14T02:02:44;95670.94;;;16.49;100.00
8697;BME280;4385;48.848;8.924;2023-03-14T02:05:12;95672.59;;;16.50;100.00
8697;BME280;4385;48.848;8.924;2023-03-14T02:07:44;95670.09;;;16.48;100.00
8697;BME280;4385;48.848;8.924;2023-03-14T02:10:11;95674.28;;;16.49;100.00
8697;BME280;4385;48.848;8.924;2023-03-14T02:12:37;95676.03;;;16.49;100.00
8697;BME280;4385;48.848;8.924;2023-03-14T02:15:04;95670.09;;;16.48;100.00
8697;BME280;4385;48.848;8.924;2023-03-14T02:17:29;95664.19;;;16.48;100.00
8697;BME280;4385;48.848;8.924;2023-03-14T02:22:38;95666.78;;;16.46;100.00
8697;BME280;4385;48.848;8.924;2023-03-14T02:28:05;95638.91;;;16.44;100.00
8697;BME280;4385;48.848;8.924;2023-03-14T02:30:31;95639.75;;;16.45;100.00
8697;BME280;4385;48.848;8.924;2023-03-14T02:33:01;95644.00;;;16.44;100.00
8697;BME280;4385;48.848;8.924;2023-03-14T02:35:33;95640.63;;;16.44;100.00
8697;BME280;4385;48.848;8.924;2023-03-14T02:38:06;95640.69;;;16.42;100.00
8697;BME280;4385;48.848;8.924;2023-03-14T02:40:35;95634.78;;;16.42;100.00
8697;BME280;4385;48.848;8.924;2023-03-14T02:43:00;95639.88;;;16.42;100.00
8697;BME280;4385;48.848;8.924;2023-03-14T02:45:36;95632.25;;;16.42;100.00
8697;BME280;4385;48.848;8.924;2023-03-14T02:48:07;95617.91;;;16.41;100.00
8697;BME280;4385;48.848;8.924;2023-03-14T02:50:34;95631.47;;;16.40;100.00
8697;BME280;4385;48.848;8.924;2023-03-14T02:52:59;95616.22;;;16.40;100.00
8697;BME280;4385;48.848;8.924;2023-03-14T02:55:25;95615.41;;;16.39;100.00
8697;BME280;4385;48.848;8.924;2023-03-14T02:57:52;95612.88;;;16.39;100.00
8697;BME280;4385;48.848;8.924;2023-03-14T03:00:18;95590.81;;;16.40;100.00
8697;BME280;4385;48.848;8.924;2023-03-14T03:02:44;95583.25;;;16.38;100.00
8697;BME280;4385;48.848;8.924;2023-03-14T03:05:09;95569.72;;;16.38;100.00
8697;BME280;4385;48.848;8.924;2023-03-14T03:07:35;95584.16;;;16.37;100.00
8697;BME280;4385;48.848;8.924;2023-03-14T03:10:00;95574.94;;;16.35;100.00
8697;BME280;4385;48.848;8.924;2023-03-14T03:12:25;95559.72;;;16.35;100.00
8697;BME280;4385;48.848;8.924;2023-03-14T03:14:51;95552.06;;;16.35;100.00
8697;BME280;4385;48.848;8.924;2023-03-14T03:17:16;95545.31;;;16.33;100.00
8697;BME280;4385;48.848;8.924;2023-03-14T03:19:42;95537.69;;;16.33;100.00
8697;BME280;4385;48.848;8.924;2023-03-14T03:22:07;95543.69;;;16.32;100.00
8697;BME280;4385;48.848;8.924;2023-03-14T03:24:33;95538.59;;;16.32;100.00
8697;BME280;4385;48.848;8.924;2023-03-14T03:26:58;95534.41;;;16.31;100.00
8697;BME280;4385;48.848;8.924;2023-03-14T03:29:23;95524.41;;;16.28;100.00
8697;BME280;4385;48.848;8.924;2023-03-14T03:31:49;95529.47;;;16.28;100.00
8697;BME280;4385;48.848;8.924;2023-03-14T03:34:14;95532.03;;;16.28;100.00
8697;BME280;4385;48.848;8.924;2023-03-14T03:36:40;95537.97;;;16.27;100.00
8697;BME280;4385;48.848;8.924;2023-03-14T03:39:05;95521.03;;;16.28;100.00
8697;BME280;4385;48.848;8.924;2023-03-14T03:41:31;95515.94;;;16.28;100.00
8697;BME280;4385;48.848;8.924;2023-03-14T03:43:57;95507.47;;;16.27;100.00
8697;BME280;4385;48.848;8.924;2023-03-14T03:46:22;95510.03;;;16.27;100.00
8697;BME280;4385;48.848;8.924;2023-03-14T03:48:48;95504.94;;;16.27;100.00
8697;BME280;4385;48.848;8.924;2023-03-14T03:51:15;95499.94;;;16.26;100.00
8697;BME280;4385;48.848;8.924;2023-03-14T03:53:41;95505.00;;;16.26;100.00
8697;BME280;4385;48.848;8.924;2023-03-14T03:56:07;95508.38;;;16.26;100.00
8697;BME280;4385;48.848;8.924;2023-03-14T03:58:33;95505.91;;;16.25;100.00
8697;BME280;4385;48.848;8.924;2023-03-14T04:00:58;95502.47;;;16.26;100.00
8697;BME280;4385;48.848;8.924;2023-03-14T04:03:23;95505.91;;;16.25;100.00
8697;BME280;4385;48.848;8.924;2023-03-14T04:06:05;95492.38;;;16.24;100.00
8697;BME280;4385;48.848;8.924;2023-03-14T04:08:31;95498.34;;;16.23;100.00
8697;BME280;4385;48.848;8.924;2023-03-14T04:10:57;95504.34;;;16.22;100.00
8697;BME280;4385;48.848;8.924;2023-03-14T04:13:24;95504.34;;;16.22;100.00
8697;BME280;4385;48.848;8.924;2023-03-14T04:15:49;95504.41;;;16.20;100.00
8697;BME280;4385;48.848;8.924;2023-03-14T04:18:15;95506.13;;;16.20;100.00
8697;BME280;4385;48.848;8.924;2023-03-14T04:20:40;95501.94;;;16.19;100.00
8697;BME280;4385;48.848;8.924;2023-03-14T04:23:05;95499.41;;;16.19;100.00
8697;BME280;4385;48.848;8.924;2023-03-14T04:25:31;95490.09;;;16.18;100.00
8697;BME280;4385;48.848;8.924;2023-03-14T04:27:56;95494.38;;;16.17;100.00
8697;BME280;4385;48.848;8.924;2023-03-14T04:30:21;95493.53;;;16.17;100.00
8697;BME280;4385;48.848;8.924;2023-03-14T04:32:47;95493.53;;;16.17;100.00
8697;BME280;4385;48.848;8.924;2023-03-14T04:35:12;95491.91;;;16.16;100.00
8697;BME280;4385;48.848;8.924;2023-03-14T04:37:37;95486.81;;;16.16;100.00
8697;BME280;4385;48.848;8.924;2023-03-14T04:40:03;95485.09;;;16.16;100.00
8697;BME280;4385;48.848;8.924;2023-03-14T04:42:31;95462.22;;;16.16;100.00
8697;BME280;4385;48.848;8.924;2023-03-14T04:44:56;95468.97;;;16.17;100.00
8697;BME280;4385;48.848;8.924;2023-03-14T04:47:21;95469.84;;;16.16;100.00
8697;BME280;4385;48.848;8.924;2023-03-14T04:49:47;95474.06;;;16.17;100.00
8697;BME280;4385;48.848;8.924;2023-03-14T04:52:12;95468.97;;;16.17;100.00
8697;BME280;4385;48.848;8.924;2023-03-14T04:54:37;95476.53;;;16.19;100.00
8697;BME280;4385;48.848;8.924;2023-03-14T04:57:02;95470.69;;;16.17;100.00
8697;BME280;4385;48.848;8.924;2023-03-14T04:59:28;95470.69;;;16.17;100.00
8697;BME280;4385;48.848;8.924;2023-03-14T05:01:53;95470.69;;;16.17;100.00
8697;BME280;4385;48.848;8.924;2023-03-14T05:04:18;95462.22;;;16.16;100.00
8697;BME280;4385;48.848;8.924;2023-03-14T05:06:44;95454.66;;;16.15;100.00
8697;BME280;4385;48.848;8.924;2023-03-14T05:09:09;95463.19;;;16.14;100.00
8697;BME280;4385;48.848;8.924;2023-03-14T05:11:34;95462.28;;;16.15;100.00
8697;BME280;4385;48.848;8.924;2023-03-14T05:14:00;95464.84;;;16.15;100.00
8697;BME280;4385;48.848;8.924;2023-03-14T05:16:25;95458.13;;;16.14;100.00
8697;BME280;4385;48.848;8.924;2023-03-14T05:18:50;95445.41;;;16.14;100.00
8697;BME280;4385;48.848;8.924;2023-03-14T05:21:16;95438.63;;;16.14;100.00
8697;BME280;4385;48.848;8.924;2023-03-14T05:23:41;95431.06;;;16.13;100.00
8697;BME280;4385;48.848;8.924;2023-03-14T05:26:06;95431.88;;;16.13;100.00
8697;BME280;4385;48.848;8.924;2023-03-14T05:28:32;95426.78;;;16.13;100.00
8697;BME280;4385;48.848;8.924;2023-03-14T05:30:57;95442.94;;;16.12;100.00
8697;BME280;4385;48.848;8.924;2023-03-14T05:33:22;95447.13;;;16.13;100.00
8697;BME280;4385;48.848;8.924;2023-03-14T05:35:47;95437.03;;;16.12;100.00
8697;BME280;4385;48.848;8.924;2023-03-14T05:38:13;95437.03;;;16.12;100.00
8697;BME280;4385;48.848;8.924;2023-03-14T05:40:38;95433.69;;;16.11;100.00
8697;BME280;4385;48.848;8.924;2023-03-14T05:43:03;95432.84;;;16.11;100.00
8697;BME280;4385;48.848;8.924;2023-03-14T05:45:29;95432.00;;;16.10;100.00
8697;BME280;4385;48.848;8.924;2023-03-14T05:47:54;95425.28;;;16.09;100.00
8697;BME280;4385;48.848;8.924;2023-03-14T05:50:19;95425.28;;;16.09;100.00
8697;BME280;4385;48.848;8.924;2023-03-14T05:52:45;95419.38;;;16.08;100.00
8697;BME280;4385;48.848;8.924;2023-03-14T05:55:10;95415.19;;;16.07;100.00
8697;BME280;4385;48.848;8.924;2023-03-14T05:57:35;95420.28;;;16.07;100.00
8697;BME280;4385;48.848;8.924;2023-03-14T06:00:00;95405.09;;;16.06;100.00
8697;BME280;4385;48.848;8.924;2023-03-14T06:02:26;95404.28;;;16.05;100.00
8697;BME280;4385;48.848;8.924;2023-03-14T06:04:52;95396.72;;;16.04;100.00
8697;BME280;4385;48.848;8.924;2023-03-14T06:07:17;95399.25;;;16.04;100.00
8697;BME280;4385;48.848;8.924;2023-03-14T06:09:42;95400.09;;;16.04;100.00
8697;BME280;4385;48.848;8.924;2023-03-14T06:12:08;95408.56;;;16.05;100.00
8697;BME280;4385;48.848;8.924;2023-03-14T06:14:33;95396.72;;;16.04;100.00
8697;BME280;4385;48.848;8.924;2023-03-14T06:16:58;95395.94;;;16.03;100.00
8697;BME280;4385;48.848;8.924;2023-03-14T06:19:26;95397.56;;;16.04;100.00
8697;BME280;4385;48.848;8.924;2023-03-14T06:21:51;95410.25;;;16.04;100.00
8697;BME280;4385;48.848;8.924;2023-03-14T06:24:17;95406.88;;;16.04;100.00
8697;BME280;4385;48.848;8.924;2023-03-14T06:26:42;95411.16;;;16.03;100.00
8697;BME280;4385;48.848;8.924;2023-03-14T06:29:07;95409.50;;;16.02;100.00
8697;BME280;4385;48.848;8.924;2023-03-14T06:31:33;95413.69;;;16.03;100.00
8697;BME280;4385;48.848;8.924;2023-03-14T06:33:58;95413.69;;;16.03;100.00
8697;BME280;4385;48.848;8.924;2023-03-14T06:36:24;95405.31;;;16.01;100.00
8697;BME280;4385;48.848;8.924;2023-03-14T06:38:49;95403.69;;;16.00;100.00
8697;BME280;4385;48.848;8.924;2023-03-14T06:41:14;95412.09;;;16.01;100.00
8697;BME280;4385;48.848;8.924;2023-03-14T06:43:40;95410.47;;;16.00;100.00
8697;BME280;4385;48.848;8.924;2023-03-14T06:46:05;95413.00;;;16.00;100.00
8697;BME280;4385;48.848;8.924;2023-03-14T06:48:30;95400.38;;;15.98;100.00
8697;BME280;4385;48.848;8.924;2023-03-14T06:50:56;95408.81;;;15.99;100.00
8697;BME280;4385;48.848;8.924;2023-03-14T06:53:21;95402.13;;;15.96;100.00
8697;BME280;4385;48.848;8.924;2023-03-14T06:55:46;95402.13;;;15.96;100.00
8697;BME280;4385;48.848;8.924;2023-03-14T06:58:12;95397.03;;;15.96;100.00
8697;BME280;4385;48.848;8.924;2023-03-14T07:00:37;95410.56;;;15.96;100.00
8697;BME280;4385;48.848;8.924;2023-03-14T07:03:03;95408.91;;;15.95;100.00
8697;BME280;4385;48.848;8.924;2023-03-14T07:05:28;95408.09;;;15.95;100.00
8697;BME280;4385;48.848;8.924;2023-03-14T07:07:53;95417.38;;;15.96;100.00
8697;BME280;4385;48.848;8.924;2023-03-14T07:10:19;95402.13;;;15.96;100.00
8697;BME280;4385;48.848;8.924;2023-03-14T07:12:44;95409.50;;;16.02;100.00
8697;BME280;4385;48.848;8.924;2023-03-14T07:15:10;95415.00;;;16.12;100.00
8697;BME280;4385;48.848;8.924;2023-03-14T07:17:35;95417.88;;;16.24;100.00
8697;BME280;4385;48.848;8.924;2023-03-14T07:20:00;95425.13;;;16.31;100.00
8697;BME280;4385;48.848;8.924;2023-03-14T07:22:26;95419.63;;;16.41;100.00
8697;BME280;4385;48.848;8.924;2023-03-14T07:24:51;95423.38;;;16.51;100.00
8697;BME280;4385;48.848;8.924;2023-03-14T07:27:16;95428.94;;;16.60;100.00
8697;BME280;4385;48.848;8.924;2023-03-14T07:29:42;95430.97;;;16.70;100.00
8697;BME280;4385;48.848;8.924;2023-03-14T07:32:07;95433.00;;;16.81;100.00
8697;BME280;4385;48.848;8.924;2023-03-14T07:34:33;95429.09;;;16.92;100.00
8697;BME280;4385;48.848;8.924;2023-03-14T07:36:58;95439.72;;;17.00;100.00
8697;BME280;4385;48.848;8.924;2023-03-14T07:39:24;95431.59;;;17.11;100.00
8697;BME280;4385;48.848;8.924;2023-03-14T07:41:49;95429.41;;;17.21;100.00
8697;BME280;4385;48.848;8.924;2023-03-14T07:44:14;95437.31;;;17.32;100.00
8697;BME280;4385;48.848;8.924;2023-03-14T07:46:39;95425.13;;;17.39;100.00
8697;BME280;4385;48.848;8.924;2023-03-14T07:49:05;95434.00;;;17.48;100.00
8697;BME280;4385;48.848;8.924;2023-03-14T07:51:30;95432.78;;;17.55;100.00
8697;BME280;4385;48.848;8.924;2023-03-14T07:53:55;95434.84;;;17.65;100.00
8697;BME280;4385;48.848;8.924;2023-03-14T07:56:21;95430.19;;;17.73;100.00
8697;BME280;4385;48.848;8.924;2023-03-14T07:58:46;95445.06;;;17.81;100.00
8697;BME280;4385;48.848;8.924;2023-03-14T08:01:11;95432.84;;;17.88;100.00
8697;BME280;4385;48.848;8.924;2023-03-14T08:03:36;95439.41;;;17.92;100.00
8697;BME280;4385;48.848;8.924;2023-03-14T08:06:02;95434.16;;;17.95;100.00
8697;BME280;4385;48.848;8.924;2023-03-14T08:08:27;95431.53;;;17.97;100.00
8697;BME280;4385;48.848;8.924;2023-03-14T08:10:52;95444.19;;;17.98;100.00
8697;BME280;4385;48.848;8.924;2023-03-14T08:13:18;95444.03;;;18.01;100.00
8697;BME280;4385;48.848;8.924;2023-03-14T08:15:47;95446.41;;;18.04;100.00
8697;BME280;4385;48.848;8.924;2023-03-14T08:18:12;95440.31;;;18.07;100.00
8697;BME280;4385;48.848;8.924;2023-03-14T08:20:38;95451.19;;;18.11;100.00
8697;BME280;4385;48.848;8.924;2023-03-14T08:23:03;95449.50;;;18.11;100.00
8697;BME280;4385;48.848;8.924;2023-03-14T08:25:29;95450.22;;;18.13;100.00
8697;BME280;4385;48.848;8.924;2023-03-14T08:27:54;95450.13;;;18.15;100.00
8697;BME280;4385;48.848;8.924;2023-03-14T08:30:20;95449.19;;;18.17;100.00
8697;BME280;4385;48.848;8.924;2023-03-14T08:32:46;95465.94;;;18.22;100.00
8697;BME280;4385;48.848;8.924;2023-03-14T08:35:12;95451.31;;;18.25;100.00
8697;BME280;4385;48.848;8.924;2023-03-14T08:37:38;95456.25;;;18.28;100.00
8697;BME280;4385;48.848;8.924;2023-03-14T08:40:04;95459.50;;;18.30;100.00
8697;BME280;4385;48.848;8.924;2023-03-14T08:42:33;95455.91;;;18.35;100.00
8697;BME280;4385;48.848;8.924;2023-03-14T08:44:59;95453.19;;;18.38;100.00
8697;BME280;4385;48.848;8.924;2023-03-14T08:47:25;95463.16;;;18.42;100.00
8697;BME280;4385;48.848;8.924;2023-03-14T08:49:50;95461.97;;;18.48;100.00
8697;BME280;4385;48.848;8.924;2023-03-14T08:52:15;95464.28;;;18.53;100.00
8697;BME280;4385;48.848;8.924;2023-03-14T08:54:43;95460.56;;;18.59;100.00
8697;BME280;4385;48.848;8.924;2023-03-14T08:57:08;95465.41;;;18.63;100.00
8697;BME280;4385;48.848;8.924;2023-03-14T08:59:33;95479.56;;;18.69;100.00
8697;BME280;4385;48.848;8.924;2023-03-14T09:01:59;95470.91;;;18.72;100.00
8697;BME280;4385;48.848;8.924;2023-03-14T09:04:24;95473.31;;;18.75;100.00
8697;BME280;4385;48.848;8.924;2023-03-14T09:06:49;95477.41;;;18.77;100.00
8697;BME280;4385;48.848;8.924;2023-03-14T09:09:14;95486.72;;;18.78;100.00
8697;BME280;4385;48.848;8.924;2023-03-14T09:11:40;95485.81;;;18.79;100.00
8697;BME280;4385;48.848;8.924;2023-03-14T09:14:05;95496.75;;;18.81;100.00
8697;BME280;4385;48.848;8.924;2023-03-14T09:16:33;95499.31;;;18.81;100.00
8697;BME280;4385;48.848;8.924;2023-03-14T09:18:58;95493.28;;;18.82;100.00
8697;BME280;4385;48.848;8.924;2023-03-14T09:21:25;95499.13;;;18.85;100.00
8697;BME280;4385;48.848;8.924;2023-03-14T09:23:50;95500.84;;;18.84;100.00
8697;BME280;4385;48.848;8.924;2023-03-14T09:26:16;95503.41;;;18.84;100.00
8697;BME280;4385;48.848;8.924;2023-03-14T09:28:41;95513.53;;;18.86;100.00
8697;BME280;4385;48.848;8.924;2023-03-14T09:31:08;95522.81;;;18.87;100.00
8697;BME280;4385;48.848;8.924;2023-03-14T09:33:34;95522.00;;;18.86;100.00
8697;BME280;4385;48.848;8.924;2023-03-14T09:36:00;95529.59;;;18.88;100.00
8697;BME280;4385;48.848;8.924;2023-03-14T09:38:26;95532.06;;;18.89;100.00
8697;BME280;4385;48.848;8.924;2023-03-14T09:40:51;95543.91;;;18.90;100.00
8697;BME280;4385;48.848;8.924;2023-03-14T09:43:18;95542.09;;;18.92;100.00
8697;BME280;4385;48.848;8.924;2023-03-14T09:45:46;95540.25;;;18.94;100.00
8697;BME280;4385;48.848;8.924;2023-03-14T09:48:19;95541.09;;;18.95;100.00
8697;BME280;4385;48.848;8.924;2023-03-14T09:50:48;95545.28;;;18.96;100.00
8697;BME280;4385;48.848;8.924;2023-03-14T09:53:18;95544.31;;;18.99;100.00
8697;BME280;4385;48.848;8.924;2023-03-14T09:55:46;95539.13;;;19.00;100.00
8697;BME280;4385;48.848;8.924;2023-03-14T09:58:16;95537.28;;;19.02;100.00
8697;BME280;4385;48.848;8.924;2023-03-14T10:00:43;95530.53;;;19.01;100.00
8697;BME280;4385;48.848;8.924;2023-03-14T10:05:37;95532.34;;;18.99;100.00
8697;BME280;4385;48.848;8.924;2023-03-14T10:08:03;95520.41;;;19.00;100.00
8697;BME280;4385;48.848;8.924;2023-03-14T10:10:30;95519.59;;;18.99;100.00
8697;BME280;4385;48.848;8.924;2023-03-14T10:12:59;95520.50;;;18.98;100.00
8697;BME280;4385;48.848;8.924;2023-03-14T10:15:31;95524.06;;;18.96;100.00
8697;BME280;4385;48.848;8.924;2023-03-14T10:18:00;95524.13;;;18.94;100.00
8697;BME280;4385;48.848;8.924;2023-03-14T10:20:34;95533.59;;;18.92;100.00
8697;BME280;4385;48.848;8.924;2023-03-14T10:23:19;95525.13;;;18.91;100.00
8697;BME280;4385;48.848;8.924;2023-03-14T10:26:08;95518.38;;;18.90;100.00
8697;BME280;4385;48.848;8.924;2023-03-14T10:28:39;95521.84;;;18.89;100.00
8697;BME280;4385;48.848;8.924;2023-03-14T10:31:07;95514.09;;;18.91;100.00
8697;BME280;4385;48.848;8.924;2023-03-14T10:33:35;95521.69;;;18.92;100.00
8697;BME280;4385;48.848;8.924;2023-03-14T10:36:17;95525.78;;;18.95;100.00
8697;BME280;4385;48.848;8.924;2023-03-14T10:38:43;95529.06;;;18.97;100.00
8697;BME280;4385;48.848;8.924;2023-03-14T10:41:34;95528.91;;;19.00;100.00
8697;BME280;4385;48.848;8.924;2023-03-14T10:44:01;95532.00;;;19.05;100.00
8697;BME280;4385;48.848;8.924;2023-03-14T10:46:30;95538.63;;;19.10;100.00
8697;BME280;4385;48.848;8.924;2023-03-14T10:48:56;95537.47;;;19.15;100.00
8697;BME280;4385;48.848;8.924;2023-03-14T10:51:27;95544.84;;;19.20;100.00
8697;BME280;4385;48.848;8.924;2023-03-14T10:54:00;95554.06;;;19.23;100.00
8697;BME280;4385;48.848;8.924;2023-03-14T10:56:33;95557.38;;;19.25;100.00
8697;BME280;4385;48.848;8.924;2023-03-14T10:58:59;95561.47;;;19.27;100.00
8697;BME280;4385;48.848;8.924;2023-03-14T11:01:48;95571.50;;;19.30;100.00
8697;BME280;4385;48.848;8.924;2023-03-14T11:07:27;95580.09;;;19.29;100.00
8697;BME280;4385;48.848;8.924;2023-03-14T11:21:29;95579.31;;;19.13;100.00
8697;BME280;4385;48.848;8.924;2023-03-14T11:24:11;95573.44;;;19.11;100.00
8697;BME280;4385;48.848;8.924;2023-03-14T11:26:48;95576.97;;;19.08;100.00
8697;BME280;4385;48.848;8.924;2023-03-14T11:31:45;95580.75;;;19.01;100.00
8697;BME280;4385;48.848;8.924;2023-03-14T11:34:40;95580.13;;;18.97;100.00
8697;BME280;4385;48.848;8.924;2023-03-14T11:37:15;95579.38;;;18.95;100.00
8697;BME280;4385;48.848;8.924;2023-03-14T11:39:47;95577.72;;;18.94;100.00
8697;BME280;4385;48.848;8.924;2023-03-14T11:42:17;95589.66;;;18.93;100.00
8697;BME280;4385;48.848;8.924;2023-03-14T11:44:46;95581.25;;;18.91;100.00
8697;BME280;4385;48.848;8.924;2023-03-14T11:47:18;95599.94;;;18.92;100.00
8697;BME280;4385;48.848;8.924;2023-03-14T11:49:50;95600.88;;;18.91;100.00
8697;BME280;4385;48.848;8.924;2023-03-14T11:52:30;95605.13;;;18.90;100.00
8697;BME280;4385;48.848;8.924;2023-03-14T11:55:05;95611.06;;;18.91;100.00
8697;BME280;4385;48.848;8.924;2023-03-14T11:57:32;95620.44;;;18.90;100.00
8697;BME280;4385;48.848;8.924;2023-03-14T12:00:16;95633.22;;;18.90;100.00
8697;BME280;4385;48.848;8.924;2023-03-14T12:02:55;95625.63;;;18.89;100.00
8697;BME280;4385;48.848;8.924;2023-03-14T12:05:37;95634.13;;;18.89;100.00
8697;BME280;4385;48.848;8.924;2023-03-14T12:13:10;95669.19;;;18.86;100.00
8697;BME280;4385;48.848;8.924;2023-03-14T12:15:56;95681.19;;;18.84;100.00
8697;BME280;4385;48.848;8.924;2023-03-14T12:18:32;95698.31;;;18.81;100.00
8697;BME280;4385;48.848;8.924;2023-03-14T12:21:03;95706.84;;;18.80;100.00
8697;BME280;4385;48.848;8.924;2023-03-14T12:23:49;95728.19;;;18.79;100.00
8697;BME280;4385;48.848;8.924;2023-03-14T12:26:19;95738.47;;;18.78;100.00
8697;BME280;4385;48.848;8.924;2023-03-14T12:31:38;95766.69;;;18.75;100.00
8697;BME280;4385;48.848;8.924;2023-03-14T12:36:58;95762.50;;;18.74;100.00
8697;BME280;4385;48.848;8.924;2023-03-14T12:42:14;95754.00;;;18.73;100.00
8697;BME280;4385;48.848;8.924;2023-03-14T12:44:47;95778.63;;;18.74;100.00
8697;BME280;4385;48.848;8.924;2023-03-14T12:50:08;95760.59;;;18.77;100.00
8697;BME280;4385;48.848;8.924;2023-03-14T12:52:59;95782.69;;;18.78;100.00
8697;BME280;4385;48.848;8.924;2023-03-14T12:55:33;95791.13;;;18.79;100.00
8697;BME280;4385;48.848;8.924;2023-03-14T12:58:23;95785.97;;;18.80;100.00
8697;BME280;4385;48.848;8.924;2023-03-14T13:00:59;95788.50;;;18.80;100.00
8697;BME280;4385;48.848;8.924;2023-03-14T13:03:37;95804.66;;;18.81;100.00
8697;BME280;4385;48.848;8.924;2023-03-14T13:06:04;95805.66;;;18.78;100.00
8697;BME280;4385;48.848;8.924;2023-03-14T13:08:44;95819.13;;;18.80;100.00
8697;BME280;4385;48.848;8.924;2023-03-14T13:11:16;95824.22;;;18.80;100.00
8697;BME280;4385;48.848;8.924;2023-03-14T13:13:49;95857.56;;;18.77;100.00
8697;BME280;4385;48.848;8.924;2023-03-14T13:16:19;95869.59;;;18.75;100.00
8697;BME280;4385;48.848;8.924;2023-03-14T13:18:46;95867.91;;;18.74;100.00
8697;BME280;4385;48.848;8.924;2023-03-14T13:21:18;95883.28;;;18.73;100.00
8697;BME280;4385;48.848;8.924;2023-03-14T13:24:05;95888.47;;;18.71;100.00
8697;BME280;4385;48.848;8.924;2023-03-14T13:26:36;95892.84;;;18.69;100.00
8697;BME280;4385;48.848;8.924;2023-03-14T13:29:29;95915.03;;;18.67;100.00
8697;BME280;4385;48.848;8.924;2023-03-14T13:31:58;95923.59;;;18.66;100.00
8697;BME280;4385;48.848;8.924;2023-03-14T13:34:31;95918.66;;;18.63;100.00
8697;BME280;4385;48.848;8.924;2023-03-14T13:36:57;95931.41;;;18.63;100.00
8697;BME280;4385;48.848;8.924;2023-03-14T13:39:25;95949.28;;;18.63;100.00
8697;BME280;4385;48.848;8.924;2023-03-14T13:41:52;95947.53;;;18.63;100.00
8697;BME280;4385;48.848;8.924;2023-03-14T13:44:38;95971.16;;;18.67;100.00
8697;BME280;4385;48.848;8.924;2023-03-14T13:47:06;95969.38;;;18.69;100.00
8697;BME280;4385;48.848;8.924;2023-03-14T13:49:35;95981.22;;;18.70;100.00
8697;BME280;4385;48.848;8.924;2023-03-14T13:52:03;95987.25;;;18.69;100.00
8697;BME280;4385;48.848;8.924;2023-03-14T13:54:31;95997.38;;;18.71;100.00
8697;BME280;4385;48.848;8.924;2023-03-14T13:57:05;96011.78;;;18.72;100.00
8697;BME280;4385;48.848;8.924;2023-03-14T13:59:32;96011.72;;;18.73;100.00